x

Destruction Island, Wa (desw1) Weather Station

5:00pm - Wed 28th Jun 2017 All times are PDT. -7 hours from GMT.

  • Wind
    8mph, 9mph gusts
  • Air Temp 58°f
  • Sea Pressure 1018.4mb
  • Destruction Island, Wa
  • Destruction Island, Wa

More Historic Weather Station data

Upgrade to MSW Pro to gain access to the past 30 days of data for over 8000 Wavebouys and Weather Stations around the globe.

Join Pro

Comparision Forecast

View Surf forecast
   
Wed 06/28 5:00pm 8 9 mph 1018.4mb 58f
4:00pm 8 10 mph 1018.4mb 58f
3:00pm 11 13 mph 1018.2mb 58f
2:00pm 10 10 mph 1018.2mb 57f
1:00pm 13 15 mph 1018.1mb 57f
12:00pm 13 14 mph 1017.9mb 56f
11:00am 11 13 mph 1017.5mb 56f
10:00am 11 11 mph 1017.1mb 56f
9:00am 9 10 mph 1016.8mb 55f
8:00am 6 6 mph 1016.7mb 55f
7:00am 3 3 mph 1016.6mb 54f
6:00am  -  1 mph 1016.5mb 54f
5:00am  -  1 mph 1016.3mb 54f
4:00am 7 9 mph 1016.4mb 54f
3:00am 3 6 mph 1016.2mb 54f
2:00am 5 6 mph 1016.4mb 55f
1:00am 5 7 mph 1016.6mb 55f
12:00am 7 8 mph 1016.6mb 55f
Tue 06/27 11:00pm 5 5 mph 1016.5mb 55f
10:00pm 7 8 mph 1016.7mb 56f
9:00pm 6 6 mph 1016.3mb 56f
8:00pm 1 2 mph 1016.2mb 58f
7:00pm 2 3 mph 1016.4mb 59f
6:00pm 3 3 mph 1016.8mb 59f
5:00pm 6 7 mph 1017mb 60f
4:00pm 8 9 mph 1017.1mb 58f
3:00pm 10 11 mph 1017.3mb 59f
2:00pm 15 16 mph 1017.4mb 57f
1:00pm 16 17 mph 1017.5mb 57f
12:00pm 18 18 mph 1017.4mb 58f
11:00am 16 18 mph 1017.4mb 57f
10:00am 15 17 mph 1017.5mb 56f
9:00am 13 14 mph 1017.4mb 56f
8:00am 13 14 mph 1017.2mb 54f
7:00am 10 11 mph 1017.2mb 54f
6:00am 11 11 mph 1017mb 53f
5:00am 10 11 mph 1016.8mb 54f
4:00am 6 6 mph 1017mb 54f
3:00am 3 3 mph 1017.1mb 54f
2:00am 3 3 mph 1016.9mb 55f
1:00am 5 5 mph 1017.1mb 55f
12:00am 3 3 mph 1017.2mb 55f
Mon 06/26 11:00pm 5 5 mph 1017.4mb 55f
10:00pm 11 11 mph 1017.1mb 54f
9:00pm 14 15 mph 1016.6mb 54f
8:00pm 15 17 mph 1016.4mb 55f
7:00pm 18 20 mph 1016.3mb 55f
6:00pm 17 20 mph 1016.7mb 55f
5:00pm 16 18 mph 1017.3mb 56f
4:00pm 16 18 mph 1017.3mb 56f
3:00pm 10 11 mph 1017.6mb 57f
2:00pm 13 15 mph 1017.2mb 56f
1:00pm 10 11 mph 1017.1mb 56f
12:00pm 6 7 mph 1017.3mb 55f
11:00am 6 7 mph 1016.7mb 55f
10:00am 13 14 mph 1015.9mb 54f
9:00am 14 16 mph 1015.8mb 54f
8:00am 18 21 mph 1015.2mb 54f
7:00am 18 20 mph 1015.2mb 53f
6:00am 17 18 mph 1015.2mb 54f
5:00am 17 20 mph 1015.5mb 54f
4:00am 9 10 mph 1015.6mb 55f
3:00am 9 10 mph 1015.6mb 55f
2:00am 9 10 mph 1015.7mb 55f
1:00am 11 13 mph 1015.8mb 55f
12:00am 23 24 mph 1013.9mb 55f
Sun 06/25 11:00pm 16 18 mph 1013.1mb 55f
10:00pm 26 29 mph 1012.7mb 56f
9:00pm 25 26 mph 1012.7mb 56f
8:00pm 30 32 mph 1012.6mb 56f
7:00pm 32 34 mph 1012.4mb 56f
6:00pm 33 38 mph 1012.2mb 57f
5:00pm 32 36 mph 1012.3mb 57f
4:00pm 24 28 mph 1012.9mb 57f
3:00pm 16 18 mph 1013.3mb 58f
2:00pm 11 14 mph 1013.2mb 58f
1:00pm 13 15 mph 1013.4mb 58f
12:00pm 8 8 mph 1013.2mb 60f
11:00am 9 10 mph 1013.3mb 58f
10:00am 7 7 mph 1013.1mb 59f
9:00am 5 5 mph 1013mb 61f
8:00am  -  1 mph 1012.9mb 62f
7:00am 10 10 mph 1012.8mb 66f
6:00am 8 8 mph 1013mb 64f
5:00am 8 8 mph 1013mb 67f
4:00am 3 5 mph 1013.2mb 65f
3:00am 3 5 mph 1013.7mb 58f
2:00am 5 6 mph 1013.8mb 62f